sensor_id;sensor_type;location;lat;lon;timestamp;temperature;humidity
69261;DHT22;56378;52.404;20.816;2024-02-21T00:00:47;2.40;99.90
69261;DHT22;56378;52.404;20.816;2024-02-21T00:03:13;2.40;99.90
69261;DHT22;56378;52.404;20.816;2024-02-21T00:05:38;2.40;99.90
69261;DHT22;56378;52.404;20.816;2024-02-21T00:08:04;2.40;99.90
69261;DHT22;56378;52.404;20.816;2024-02-21T00:10:30;2.40;99.90
69261;DHT22;56378;52.404;20.816;2024-02-21T00:12:58;2.40;99.90
69261;DHT22;56378;52.404;20.816;2024-02-21T00:15:25;2.40;99.90
69261;DHT22;56378;52.404;20.816;2024-02-21T00:17:51;2.40;99.90
69261;DHT22;56378;52.404;20.816;2024-02-21T00:20:17;2.40;99.90
69261;DHT22;56378;52.404;20.816;2024-02-21T00:22:46;2.50;99.90
69261;DHT22;56378;52.404;20.816;2024-02-21T00:25:13;2.50;99.90
69261;DHT22;56378;52.404;20.816;2024-02-21T00:27:38;2.50;99.90
69261;DHT22;56378;52.404;20.816;2024-02-21T00:30:05;2.50;99.90
69261;DHT22;56378;52.404;20.816;2024-02-21T00:32:31;2.50;99.90
69261;DHT22;56378;52.404;20.816;2024-02-21T00:34:59;2.50;99.90
69261;DHT22;56378;52.404;20.816;2024-02-21T00:37:25;2.50;99.90
69261;DHT22;56378;52.404;20.816;2024-02-21T00:39:50;2.50;99.90
69261;DHT22;56378;52.404;20.816;2024-02-21T00:42:16;2.50;99.90
69261;DHT22;56378;52.404;20.816;2024-02-21T00:44:42;2.50;99.90
69261;DHT22;56378;52.404;20.816;2024-02-21T00:47:09;2.50;99.90
69261;DHT22;56378;52.404;20.816;2024-02-21T00:49:35;2.50;99.90
69261;DHT22;56378;52.404;20.816;2024-02-21T00:52:01;2.50;99.90
69261;DHT22;56378;52.404;20.816;2024-02-21T00:54:26;2.50;99.90
69261;DHT22;56378;52.404;20.816;2024-02-21T00:56:52;2.50;99.90
69261;DHT22;56378;52.404;20.816;2024-02-21T00:59:18;2.60;99.90
69261;DHT22;56378;52.404;20.816;2024-02-21T01:01:43;2.60;99.90
69261;DHT22;56378;52.404;20.816;2024-02-21T01:04:09;2.60;99.90
69261;DHT22;56378;52.404;20.816;2024-02-21T01:06:35;2.60;99.90
69261;DHT22;56378;52.404;20.816;2024-02-21T01:09:01;2.70;99.90
69261;DHT22;56378;52.404;20.816;2024-02-21T01:11:27;2.70;99.90
69261;DHT22;56378;52.404;20.816;2024-02-21T01:13:53;2.70;99.90
69261;DHT22;56378;52.404;20.816;2024-02-21T01:16:18;2.70;99.90
69261;DHT22;56378;52.404;20.816;2024-02-21T01:18:44;2.70;99.90
69261;DHT22;56378;52.404;20.816;2024-02-21T01:21:10;2.70;99.90
69261;DHT22;56378;52.404;20.816;2024-02-21T01:23:36;2.80;99.90
69261;DHT22;56378;52.404;20.816;2024-02-21T01:26:03;2.80;99.90
69261;DHT22;56378;52.404;20.816;2024-02-21T01:28:29;2.90;99.90
69261;DHT22;56378;52.404;20.816;2024-02-21T01:30:54;2.90;99.90
69261;DHT22;56378;52.404;20.816;2024-02-21T01:33:21;2.90;99.90
69261;DHT22;56378;52.404;20.816;2024-02-21T01:35:47;2.90;99.90
69261;DHT22;56378;52.404;20.816;2024-02-21T01:38:13;3.00;99.90
69261;DHT22;56378;52.404;20.816;2024-02-21T01:40:39;3.00;99.90
69261;DHT22;56378;52.404;20.816;2024-02-21T01:43:19;3.00;99.90
69261;DHT22;56378;52.404;20.816;2024-02-21T01:45:53;3.10;99.90
69261;DHT22;56378;52.404;20.816;2024-02-21T01:48:24;3.10;99.90
69261;DHT22;56378;52.404;20.816;2024-02-21T01:50:51;3.10;99.90
69261;DHT22;56378;52.404;20.816;2024-02-21T01:53:21;3.10;99.90
69261;DHT22;56378;52.404;20.816;2024-02-21T01:55:47;3.10;99.90
69261;DHT22;56378;52.404;20.816;2024-02-21T01:58:16;3.10;99.90
69261;DHT22;56378;52.404;20.816;2024-02-21T02:00:44;3.10;99.90
69261;DHT22;56378;52.404;20.816;2024-02-21T02:03:10;3.20;99.90
69261;DHT22;56378;52.404;20.816;2024-02-21T02:05:46;3.20;99.90
69261;DHT22;56378;52.404;20.816;2024-02-21T02:08:16;3.20;99.90
69261;DHT22;56378;52.404;20.816;2024-02-21T02:10:42;3.20;99.90
69261;DHT22;56378;52.404;20.816;2024-02-21T02:13:08;3.20;99.90
69261;DHT22;56378;52.404;20.816;2024-02-21T02:15:42;3.30;99.90
69261;DHT22;56378;52.404;20.816;2024-02-21T02:18:08;3.30;99.90
69261;DHT22;56378;52.404;20.816;2024-02-21T02:20:34;3.30;99.90
69261;DHT22;56378;52.404;20.816;2024-02-21T02:23:09;3.30;99.90
69261;DHT22;56378;52.404;20.816;2024-02-21T02:25:36;3.30;99.90
69261;DHT22;56378;52.404;20.816;2024-02-21T02:28:03;3.30;99.90
69261;DHT22;56378;52.404;20.816;2024-02-21T02:30:32;3.40;99.90
69261;DHT22;56378;52.404;20.816;2024-02-21T02:32:59;3.40;99.90
69261;DHT22;56378;52.404;20.816;2024-02-21T02:35:24;3.40;99.90
69261;DHT22;56378;52.404;20.816;2024-02-21T02:37:50;3.40;99.90
69261;DHT22;56378;52.404;20.816;2024-02-21T02:40:17;3.40;99.90
69261;DHT22;56378;52.404;20.816;2024-02-21T02:42:44;3.30;99.90
69261;DHT22;56378;52.404;20.816;2024-02-21T02:45:09;3.30;99.90
69261;DHT22;56378;52.404;20.816;2024-02-21T02:47:35;3.20;99.90
69261;DHT22;56378;52.404;20.816;2024-02-21T02:50:01;3.20;99.90
69261;DHT22;56378;52.404;20.816;2024-02-21T02:52:27;3.10;99.90
69261;DHT22;56378;52.404;20.816;2024-02-21T02:54:53;3.00;99.90
69261;DHT22;56378;52.404;20.816;2024-02-21T02:57:21;3.00;99.90
69261;DHT22;56378;52.404;20.816;2024-02-21T02:59:53;2.90;99.90
69261;DHT22;56378;52.404;20.816;2024-02-21T03:02:19;2.90;99.90
69261;DHT22;56378;52.404;20.816;2024-02-21T03:04:44;2.90;99.90
69261;DHT22;56378;52.404;20.816;2024-02-21T03:07:11;2.90;99.90
69261;DHT22;56378;52.404;20.816;2024-02-21T03:09:38;2.90;99.90
69261;DHT22;56378;52.404;20.816;2024-02-21T03:12:05;2.90;99.90
69261;DHT22;56378;52.404;20.816;2024-02-21T03:14:32;2.90;99.90
69261;DHT22;56378;52.404;20.816;2024-02-21T03:17:01;2.90;99.90
69261;DHT22;56378;52.404;20.816;2024-02-21T03:19:27;2.90;99.90
69261;DHT22;56378;52.404;20.816;2024-02-21T03:21:53;3.00;99.90
69261;DHT22;56378;52.404;20.816;2024-02-21T03:24:19;3.00;99.90
69261;DHT22;56378;52.404;20.816;2024-02-21T03:26:46;3.00;99.90
69261;DHT22;56378;52.404;20.816;2024-02-21T03:29:14;3.00;99.90
69261;DHT22;56378;52.404;20.816;2024-02-21T03:31:41;3.00;99.90
69261;DHT22;56378;52.404;20.816;2024-02-21T03:34:06;3.00;99.90
69261;DHT22;56378;52.404;20.816;2024-02-21T03:36:32;3.10;99.90
69261;DHT22;56378;52.404;20.816;2024-02-21T03:38:58;3.10;99.90
69261;DHT22;56378;52.404;20.816;2024-02-21T03:41:23;3.10;99.90
69261;DHT22;56378;52.404;20.816;2024-02-21T03:43:49;3.10;99.90
69261;DHT22;56378;52.404;20.816;2024-02-21T03:46:15;3.10;99.90
69261;DHT22;56378;52.404;20.816;2024-02-21T03:48:41;3.10;99.90
69261;DHT22;56378;52.404;20.816;2024-02-21T03:51:07;3.20;99.90
69261;DHT22;56378;52.404;20.816;2024-02-21T03:53:33;3.20;99.90
69261;DHT22;56378;52.404;20.816;2024-02-21T03:56:03;3.20;99.90
69261;DHT22;56378;52.404;20.816;2024-02-21T03:58:30;3.20;99.90
69261;DHT22;56378;52.404;20.816;2024-02-21T04:00:56;3.20;99.90
69261;DHT22;56378;52.404;20.816;2024-02-21T04:03:22;3.30;99.90
69261;DHT22;56378;52.404;20.816;2024-02-21T04:05:47;3.30;99.90
69261;DHT22;56378;52.404;20.816;2024-02-21T04:08:13;3.30;99.90
69261;DHT22;56378;52.404;20.816;2024-02-21T04:10:39;3.30;99.90
69261;DHT22;56378;52.404;20.816;2024-02-21T04:13:06;3.40;99.90
69261;DHT22;56378;52.404;20.816;2024-02-21T04:15:32;3.40;99.90
69261;DHT22;56378;52.404;20.816;2024-02-21T04:17:58;3.40;99.90
69261;DHT22;56378;52.404;20.816;2024-02-21T04:20:24;3.50;99.90
69261;DHT22;56378;52.404;20.816;2024-02-21T04:22:50;3.50;99.90
69261;DHT22;56378;52.404;20.816;2024-02-21T04:25:16;3.50;99.90
69261;DHT22;56378;52.404;20.816;2024-02-21T04:27:41;3.40;99.90
69261;DHT22;56378;52.404;20.816;2024-02-21T04:30:08;3.50;99.90
69261;DHT22;56378;52.404;20.816;2024-02-21T04:32:35;3.50;99.90
69261;DHT22;56378;52.404;20.816;2024-02-21T04:35:01;3.40;99.90
69261;DHT22;56378;52.404;20.816;2024-02-21T04:37:27;3.50;99.90
69261;DHT22;56378;52.404;20.816;2024-02-21T04:39:52;3.50;99.90
69261;DHT22;56378;52.404;20.816;2024-02-21T04:42:18;3.50;99.90
69261;DHT22;56378;52.404;20.816;2024-02-21T04:44:44;3.50;99.90
69261;DHT22;56378;52.404;20.816;2024-02-21T04:47:10;3.60;99.90
69261;DHT22;56378;52.404;20.816;2024-02-21T04:49:35;3.60;99.90
69261;DHT22;56378;52.404;20.816;2024-02-21T04:52:01;3.60;99.90
69261;DHT22;56378;52.404;20.816;2024-02-21T04:54:27;3.70;99.90
69261;DHT22;56378;52.404;20.816;2024-02-21T04:56:53;3.70;99.90
69261;DHT22;56378;52.404;20.816;2024-02-21T04:59:19;3.70;99.90
69261;DHT22;56378;52.404;20.816;2024-02-21T05:01:44;3.70;99.90
69261;DHT22;56378;52.404;20.816;2024-02-21T05:04:10;3.70;99.90
69261;DHT22;56378;52.404;20.816;2024-02-21T05:06:39;3.70;99.90
69261;DHT22;56378;52.404;20.816;2024-02-21T05:09:06;3.70;99.90
69261;DHT22;56378;52.404;20.816;2024-02-21T05:11:32;3.70;99.90
69261;DHT22;56378;52.404;20.816;2024-02-21T05:13:57;3.70;99.90
69261;DHT22;56378;52.404;20.816;2024-02-21T05:16:23;3.70;99.90
69261;DHT22;56378;52.404;20.816;2024-02-21T05:18:49;3.70;99.90
69261;DHT22;56378;52.404;20.816;2024-02-21T05:21:15;3.80;99.90
69261;DHT22;56378;52.404;20.816;2024-02-21T05:23:41;3.80;99.90
69261;DHT22;56378;52.404;20.816;2024-02-21T05:26:06;3.80;99.90
69261;DHT22;56378;52.404;20.816;2024-02-21T05:28:32;3.80;99.90
69261;DHT22;56378;52.404;20.816;2024-02-21T05:30:58;3.80;99.90
69261;DHT22;56378;52.404;20.816;2024-02-21T05:33:24;3.90;99.90
69261;DHT22;56378;52.404;20.816;2024-02-21T05:35:51;3.90;99.90
69261;DHT22;56378;52.404;20.816;2024-02-21T05:38:16;3.90;99.90
69261;DHT22;56378;52.404;20.816;2024-02-21T05:40:44;3.90;99.90
69261;DHT22;56378;52.404;20.816;2024-02-21T05:43:10;3.90;99.90
69261;DHT22;56378;52.404;20.816;2024-02-21T05:45:36;3.90;99.90
69261;DHT22;56378;52.404;20.816;2024-02-21T05:48:02;3.90;99.90
69261;DHT22;56378;52.404;20.816;2024-02-21T05:50:28;4.00;99.90
69261;DHT22;56378;52.404;20.816;2024-02-21T05:52:54;4.00;99.90
69261;DHT22;56378;52.404;20.816;2024-02-21T05:55:21;4.10;99.90
69261;DHT22;56378;52.404;20.816;2024-02-21T05:57:47;4.10;99.90
69261;DHT22;56378;52.404;20.816;2024-02-21T06:00:13;4.10;99.90
69261;DHT22;56378;52.404;20.816;2024-02-21T06:02:39;4.10;99.90
69261;DHT22;56378;52.404;20.816;2024-02-21T06:05:06;4.10;99.90
69261;DHT22;56378;52.404;20.816;2024-02-21T06:07:36;4.20;99.90
69261;DHT22;56378;52.404;20.816;2024-02-21T06:10:02;4.20;99.90
69261;DHT22;56378;52.404;20.816;2024-02-21T06:12:28;4.20;99.90
69261;DHT22;56378;52.404;20.816;2024-02-21T06:14:54;4.20;99.90
69261;DHT22;56378;52.404;20.816;2024-02-21T06:17:19;4.20;99.90
69261;DHT22;56378;52.404;20.816;2024-02-21T06:19:45;4.20;99.90
69261;DHT22;56378;52.404;20.816;2024-02-21T06:22:11;4.20;99.90
69261;DHT22;56378;52.404;20.816;2024-02-21T06:24:38;4.30;99.90
69261;DHT22;56378;52.404;20.816;2024-02-21T06:27:04;4.30;99.90
69261;DHT22;56378;52.404;20.816;2024-02-21T06:29:34;4.40;99.90
69261;DHT22;56378;52.404;20.816;2024-02-21T06:32:01;4.40;99.90
69261;DHT22;56378;52.404;20.816;2024-02-21T06:34:27;4.40;99.90
69261;DHT22;56378;52.404;20.816;2024-02-21T06:36:52;4.40;99.90
69261;DHT22;56378;52.404;20.816;2024-02-21T06:39:18;4.40;99.90
69261;DHT22;56378;52.404;20.816;2024-02-21T06:41:44;4.50;99.90
69261;DHT22;56378;52.404;20.816;2024-02-21T06:44:10;4.40;99.90
69261;DHT22;56378;52.404;20.816;2024-02-21T06:46:36;4.50;99.90
69261;DHT22;56378;52.404;20.816;2024-02-21T06:49:03;4.50;99.90
69261;DHT22;56378;52.404;20.816;2024-02-21T06:51:31;4.60;99.90
69261;DHT22;56378;52.404;20.816;2024-02-21T06:53:57;4.60;99.90
69261;DHT22;56378;52.404;20.816;2024-02-21T06:56:24;4.60;99.90
69261;DHT22;56378;52.404;20.816;2024-02-21T06:58:55;4.60;99.90
69261;DHT22;56378;52.404;20.816;2024-02-21T07:01:21;4.70;99.90
69261;DHT22;56378;52.404;20.816;2024-02-21T07:03:46;4.70;99.90
69261;DHT22;56378;52.404;20.816;2024-02-21T07:06:12;4.70;99.90
69261;DHT22;56378;52.404;20.816;2024-02-21T07:08:38;4.70;99.90
69261;DHT22;56378;52.404;20.816;2024-02-21T07:11:04;4.70;99.90
69261;DHT22;56378;52.404;20.816;2024-02-21T07:13:30;4.70;99.90
69261;DHT22;56378;52.404;20.816;2024-02-21T07:15:56;4.70;99.90
69261;DHT22;56378;52.404;20.816;2024-02-21T07:18:22;4.80;99.90
69261;DHT22;56378;52.404;20.816;2024-02-21T07:20:47;4.80;99.90
69261;DHT22;56378;52.404;20.816;2024-02-21T07:23:13;4.80;99.90
69261;DHT22;56378;52.404;20.816;2024-02-21T07:25:39;4.80;99.90
69261;DHT22;56378;52.404;20.816;2024-02-21T07:28:05;4.80;99.90
69261;DHT22;56378;52.404;20.816;2024-02-21T07:30:31;4.90;99.90
69261;DHT22;56378;52.404;20.816;2024-02-21T07:32:57;4.90;99.90
69261;DHT22;56378;52.404;20.816;2024-02-21T07:35:23;5.00;99.90
69261;DHT22;56378;52.404;20.816;2024-02-21T07:37:49;5.00;99.90
69261;DHT22;56378;52.404;20.816;2024-02-21T07:40:17;5.10;99.90
69261;DHT22;56378;52.404;20.816;2024-02-21T07:42:44;5.20;99.90
69261;DHT22;56378;52.404;20.816;2024-02-21T07:45:10;5.20;99.90
69261;DHT22;56378;52.404;20.816;2024-02-21T07:47:36;5.30;99.90
69261;DHT22;56378;52.404;20.816;2024-02-21T07:50:03;5.30;99.90
69261;DHT22;56378;52.404;20.816;2024-02-21T07:52:29;5.30;99.90
69261;DHT22;56378;52.404;20.816;2024-02-21T07:54:55;5.40;99.90
69261;DHT22;56378;52.404;20.816;2024-02-21T07:57:21;5.50;99.90
69261;DHT22;56378;52.404;20.816;2024-02-21T07:59:47;5.50;99.90
69261;DHT22;56378;52.404;20.816;2024-02-21T08:02:14;5.50;99.90
69261;DHT22;56378;52.404;20.816;2024-02-21T08:04:40;5.60;99.90
69261;DHT22;56378;52.404;20.816;2024-02-21T08:07:06;5.60;99.90
69261;DHT22;56378;52.404;20.816;2024-02-21T08:09:31;5.60;99.90
69261;DHT22;56378;52.404;20.816;2024-02-21T08:11:57;5.60;99.90
69261;DHT22;56378;52.404;20.816;2024-02-21T08:14:23;5.60;99.90
69261;DHT22;56378;52.404;20.816;2024-02-21T08:16:50;5.60;99.90
69261;DHT22;56378;52.404;20.816;2024-02-21T08:19:17;5.70;99.90
69261;DHT22;56378;52.404;20.816;2024-02-21T08:21:43;5.70;99.90
69261;DHT22;56378;52.404;20.816;2024-02-21T08:24:09;5.80;99.90
69261;DHT22;56378;52.404;20.816;2024-02-21T08:26:45;5.80;99.90
69261;DHT22;56378;52.404;20.816;2024-02-21T08:29:12;5.80;99.90
69261;DHT22;56378;52.404;20.816;2024-02-21T08:31:37;5.90;99.90
69261;DHT22;56378;52.404;20.816;2024-02-21T08:34:03;5.90;99.90
69261;DHT22;56378;52.404;20.816;2024-02-21T08:36:35;6.00;99.90
69261;DHT22;56378;52.404;20.816;2024-02-21T08:39:02;6.00;99.90
69261;DHT22;56378;52.404;20.816;2024-02-21T08:41:31;6.10;99.90
69261;DHT22;56378;52.404;20.816;2024-02-21T08:43:57;6.20;99.90
69261;DHT22;56378;52.404;20.816;2024-02-21T08:46:23;6.20;99.90
69261;DHT22;56378;52.404;20.816;2024-02-21T08:48:50;6.30;99.90
69261;DHT22;56378;52.404;20.816;2024-02-21T08:51:16;6.40;99.90
69261;DHT22;56378;52.404;20.816;2024-02-21T08:53:45;6.50;99.90
69261;DHT22;56378;52.404;20.816;2024-02-21T08:56:11;6.70;99.90
69261;DHT22;56378;52.404;20.816;2024-02-21T08:58:38;6.80;99.90
69261;DHT22;56378;52.404;20.816;2024-02-21T09:01:05;7.00;99.90
69261;DHT22;56378;52.404;20.816;2024-02-21T09:03:38;7.00;99.90
69261;DHT22;56378;52.404;20.816;2024-02-21T09:06:07;7.00;99.90
69261;DHT22;56378;52.404;20.816;2024-02-21T09:08:33;7.00;99.90
69261;DHT22;56378;52.404;20.816;2024-02-21T09:11:03;7.00;99.90
69261;DHT22;56378;52.404;20.816;2024-02-21T09:13:28;7.00;99.90
69261;DHT22;56378;52.404;20.816;2024-02-21T09:15:55;6.90;99.90
69261;DHT22;56378;52.404;20.816;2024-02-21T09:18:21;6.90;99.90
69261;DHT22;56378;52.404;20.816;2024-02-21T09:20:47;6.80;99.90
69261;DHT22;56378;52.404;20.816;2024-02-21T09:23:13;6.80;99.90
69261;DHT22;56378;52.404;20.816;2024-02-21T09:25:39;6.70;99.90
69261;DHT22;56378;52.404;20.816;2024-02-21T09:28:05;6.70;99.90
69261;DHT22;56378;52.404;20.816;2024-02-21T09:30:32;6.70;99.90
69261;DHT22;56378;52.404;20.816;2024-02-21T09:32:58;6.70;99.90
69261;DHT22;56378;52.404;20.816;2024-02-21T09:35:27;6.70;99.90
69261;DHT22;56378;52.404;20.816;2024-02-21T09:37:54;6.80;99.90
69261;DHT22;56378;52.404;20.816;2024-02-21T09:40:20;6.80;99.90
69261;DHT22;56378;52.404;20.816;2024-02-21T09:42:47;6.70;99.90
69261;DHT22;56378;52.404;20.816;2024-02-21T09:45:23;6.70;99.90
69261;DHT22;56378;52.404;20.816;2024-02-21T09:50:17;6.70;99.90
69261;DHT22;56378;52.404;20.816;2024-02-21T09:52:48;6.70;99.90
69261;DHT22;56378;52.404;20.816;2024-02-21T09:55:15;6.70;99.90
69261;DHT22;56378;52.404;20.816;2024-02-21T09:57:40;6.60;99.90
69261;DHT22;56378;52.404;20.816;2024-02-21T10:00:07;6.60;99.90
69261;DHT22;56378;52.404;20.816;2024-02-21T10:02:34;6.60;99.90
69261;DHT22;56378;52.404;20.816;2024-02-21T10:04:59;6.60;99.90
69261;DHT22;56378;52.404;20.816;2024-02-21T10:07:25;6.60;99.90
69261;DHT22;56378;52.404;20.816;2024-02-21T10:10:01;6.50;99.90
69261;DHT22;56378;52.404;20.816;2024-02-21T10:12:27;6.60;99.90
69261;DHT22;56378;52.404;20.816;2024-02-21T10:15:03;6.60;99.90
69261;DHT22;56378;52.404;20.816;2024-02-21T10:17:29;6.60;99.90
69261;DHT22;56378;52.404;20.816;2024-02-21T10:19:55;6.70;99.90
69261;DHT22;56378;52.404;20.816;2024-02-21T10:22:20;6.70;99.90
69261;DHT22;56378;52.404;20.816;2024-02-21T10:24:46;6.70;99.90
69261;DHT22;56378;52.404;20.816;2024-02-21T10:27:12;6.70;99.90
69261;DHT22;56378;52.404;20.816;2024-02-21T10:29:39;6.70;99.90
69261;DHT22;56378;52.404;20.816;2024-02-21T10:32:10;6.70;99.90
69261;DHT22;56378;52.404;20.816;2024-02-21T10:34:37;6.70;99.90
69261;DHT22;56378;52.404;20.816;2024-02-21T10:37:04;6.70;99.90
69261;DHT22;56378;52.404;20.816;2024-02-21T10:39:34;6.80;99.90
69261;DHT22;56378;52.404;20.816;2024-02-21T10:42:01;6.80;99.90
69261;DHT22;56378;52.404;20.816;2024-02-21T10:44:32;6.80;99.90
69261;DHT22;56378;52.404;20.816;2024-02-21T10:46:58;6.80;99.90
69261;DHT22;56378;52.404;20.816;2024-02-21T10:49:28;6.90;99.90
69261;DHT22;56378;52.404;20.816;2024-02-21T10:52:29;6.80;99.90
69261;DHT22;56378;52.404;20.816;2024-02-21T10:55:21;6.90;99.90
69261;DHT22;56378;52.404;20.816;2024-02-21T10:57:51;6.90;99.90
69261;DHT22;56378;52.404;20.816;2024-02-21T11:00:18;6.90;99.90
69261;DHT22;56378;52.404;20.816;2024-02-21T11:02:45;6.90;99.90
69261;DHT22;56378;52.404;20.816;2024-02-21T11:05:12;6.90;99.90
69261;DHT22;56378;52.404;20.816;2024-02-21T11:07:38;6.90;99.90
69261;DHT22;56378;52.404;20.816;2024-02-21T11:10:05;6.90;99.90
69261;DHT22;56378;52.404;20.816;2024-02-21T11:12:33;6.90;99.90
69261;DHT22;56378;52.404;20.816;2024-02-21T11:15:08;7.00;99.90
69261;DHT22;56378;52.404;20.816;2024-02-21T11:17:34;7.10;99.90
69261;DHT22;56378;52.404;20.816;2024-02-21T11:20:11;7.10;99.90
69261;DHT22;56378;52.404;20.816;2024-02-21T11:22:42;7.10;99.90
69261;DHT22;56378;52.404;20.816;2024-02-21T11:25:08;7.10;99.90
69261;DHT22;56378;52.404;20.816;2024-02-21T11:27:37;7.10;99.90
69261;DHT22;56378;52.404;20.816;2024-02-21T11:30:05;7.00;99.90
69261;DHT22;56378;52.404;20.816;2024-02-21T11:32:31;6.90;99.90
69261;DHT22;56378;52.404;20.816;2024-02-21T11:35:01;6.80;99.90
69261;DHT22;56378;52.404;20.816;2024-02-21T11:37:32;6.80;99.90
69261;DHT22;56378;52.404;20.816;2024-02-21T11:40:04;6.80;99.90
69261;DHT22;56378;52.404;20.816;2024-02-21T11:42:32;6.80;99.90
69261;DHT22;56378;52.404;20.816;2024-02-21T11:44:59;6.80;99.90
69261;DHT22;56378;52.404;20.816;2024-02-21T11:47:27;6.80;99.90
69261;DHT22;56378;52.404;20.816;2024-02-21T11:49:54;6.80;99.90
69261;DHT22;56378;52.404;20.816;2024-02-21T11:52:22;6.80;99.90
69261;DHT22;56378;52.404;20.816;2024-02-21T11:54:51;6.80;99.90
69261;DHT22;56378;52.404;20.816;2024-02-21T11:57:17;6.80;99.90
69261;DHT22;56378;52.404;20.816;2024-02-21T11:59:44;6.80;99.90
69261;DHT22;56378;52.404;20.816;2024-02-21T12:02:11;6.80;99.90
69261;DHT22;56378;52.404;20.816;2024-02-21T12:04:37;6.80;99.90
69261;DHT22;56378;52.404;20.816;2024-02-21T12:07:03;6.80;99.90
69261;DHT22;56378;52.404;20.816;2024-02-21T12:09:33;6.80;99.90
69261;DHT22;56378;52.404;20.816;2024-02-21T12:12:04;6.80;99.90
69261;DHT22;56378;52.404;20.816;2024-02-21T12:14:35;6.70;99.90
69261;DHT22;56378;52.404;20.816;2024-02-21T12:17:02;6.80;99.90
69261;DHT22;56378;52.404;20.816;2024-02-21T12:19:32;6.80;99.90
69261;DHT22;56378;52.404;20.816;2024-02-21T12:21:59;6.80;99.90
69261;DHT22;56378;52.404;20.816;2024-02-21T12:24:26;6.80;99.90
69261;DHT22;56378;52.404;20.816;2024-02-21T12:26:53;6.70;99.90
69261;DHT22;56378;52.404;20.816;2024-02-21T12:29:19;6.70;99.90
69261;DHT22;56378;52.404;20.816;2024-02-21T12:31:45;6.60;99.90
69261;DHT22;56378;52.404;20.816;2024-02-21T12:34:11;6.60;99.90
69261;DHT22;56378;52.404;20.816;2024-02-21T12:36:44;6.60;99.90
69261;DHT22;56378;52.404;20.816;2024-02-21T12:39:10;6.60;99.90
69261;DHT22;56378;52.404;20.816;2024-02-21T12:41:37;6.70;99.90
69261;DHT22;56378;52.404;20.816;2024-02-21T12:44:09;6.70;99.90
69261;DHT22;56378;52.404;20.816;2024-02-21T12:46:37;6.70;99.90
69261;DHT22;56378;52.404;20.816;2024-02-21T12:49:04;6.70;99.90
69261;DHT22;56378;52.404;20.816;2024-02-21T12:51:31;6.70;99.90
69261;DHT22;56378;52.404;20.816;2024-02-21T12:53:57;6.70;99.90
69261;DHT22;56378;52.404;20.816;2024-02-21T12:56:23;6.70;99.90
69261;DHT22;56378;52.404;20.816;2024-02-21T12:58:50;6.70;99.90
69261;DHT22;56378;52.404;20.816;2024-02-21T13:01:16;6.70;99.90
69261;DHT22;56378;52.404;20.816;2024-02-21T13:03:42;6.70;99.90
69261;DHT22;56378;52.404;20.816;2024-02-21T13:06:08;6.70;99.90
69261;DHT22;56378;52.404;20.816;2024-02-21T13:08:36;6.80;99.90
69261;DHT22;56378;52.404;20.816;2024-02-21T13:11:03;6.80;99.90
69261;DHT22;56378;52.404;20.816;2024-02-21T13:13:29;6.80;99.90
69261;DHT22;56378;52.404;20.816;2024-02-21T13:15:56;6.70;99.90
69261;DHT22;56378;52.404;20.816;2024-02-21T13:18:22;6.70;99.90
69261;DHT22;56378;52.404;20.816;2024-02-21T13:20:47;6.70;99.90
69261;DHT22;56378;52.404;20.816;2024-02-21T13:23:13;6.70;99.90
69261;DHT22;56378;52.404;20.816;2024-02-21T13:25:39;6.70;99.90
69261;DHT22;56378;52.404;20.816;2024-02-21T13:28:05;6.70;99.90
69261;DHT22;56378;52.404;20.816;2024-02-21T13:30:30;6.60;99.90
69261;DHT22;56378;52.404;20.816;2024-02-21T13:32:56;6.60;99.90
69261;DHT22;56378;52.404;20.816;2024-02-21T13:35:22;6.60;99.90
69261;DHT22;56378;52.404;20.816;2024-02-21T13:37:47;6.60;99.90
69261;DHT22;56378;52.404;20.816;2024-02-21T13:40:14;6.60;99.90
69261;DHT22;56378;52.404;20.816;2024-02-21T13:42:40;6.60;99.90
69261;DHT22;56378;52.404;20.816;2024-02-21T13:45:06;6.60;99.90
69261;DHT22;56378;52.404;20.816;2024-02-21T13:47:33;6.50;99.90
69261;DHT22;56378;52.404;20.816;2024-02-21T13:49:59;6.60;99.90
69261;DHT22;56378;52.404;20.816;2024-02-21T13:52:25;6.60;99.90
69261;DHT22;56378;52.404;20.816;2024-02-21T13:54:54;6.60;99.90
69261;DHT22;56378;52.404;20.816;2024-02-21T13:57:19;6.60;99.90
69261;DHT22;56378;52.404;20.816;2024-02-21T13:59:45;6.60;99.90
69261;DHT22;56378;52.404;20.816;2024-02-21T14:02:11;6.60;99.90
69261;DHT22;56378;52.404;20.816;2024-02-21T14:04:38;6.50;99.90
69261;DHT22;56378;52.404;20.816;2024-02-21T14:07:03;6.50;99.90
69261;DHT22;56378;52.404;20.816;2024-02-21T14:09:29;6.50;99.90
69261;DHT22;56378;52.404;20.816;2024-02-21T14:11:55;6.50;99.90
69261;DHT22;56378;52.404;20.816;2024-02-21T14:14:21;6.50;99.90
69261;DHT22;56378;52.404;20.816;2024-02-21T14:16:47;6.50;99.90
69261;DHT22;56378;52.404;20.816;2024-02-21T14:19:14;6.60;99.90
69261;DHT22;56378;52.404;20.816;2024-02-21T14:21:39;6.50;99.90
69261;DHT22;56378;52.404;20.816;2024-02-21T14:24:05;6.60;99.90
69261;DHT22;56378;52.404;20.816;2024-02-21T14:26:32;6.50;99.90
69261;DHT22;56378;52.404;20.816;2024-02-21T14:28:58;6.50;99.90
69261;DHT22;56378;52.404;20.816;2024-02-21T14:31:24;6.50;99.90
69261;DHT22;56378;52.404;20.816;2024-02-21T14:33:50;6.50;99.90
69261;DHT22;56378;52.404;20.816;2024-02-21T14:36:16;6.50;99.90
69261;DHT22;56378;52.404;20.816;2024-02-21T14:38:42;6.50;99.90
69261;DHT22;56378;52.404;20.816;2024-02-21T14:41:09;6.50;99.90
69261;DHT22;56378;52.404;20.816;2024-02-21T14:43:38;6.50;99.90
69261;DHT22;56378;52.404;20.816;2024-02-21T14:46:04;6.50;99.90
69261;DHT22;56378;52.404;20.816;2024-02-21T14:48:31;6.50;99.90
69261;DHT22;56378;52.404;20.816;2024-02-21T14:50:58;6.40;99.90
69261;DHT22;56378;52.404;20.816;2024-02-21T14:53:24;6.40;99.90
69261;DHT22;56378;52.404;20.816;2024-02-21T14:55:50;6.40;99.90
69261;DHT22;56378;52.404;20.816;2024-02-21T14:58:16;6.40;99.90
69261;DHT22;56378;52.404;20.816;2024-02-21T15:00:45;6.40;99.90
69261;DHT22;56378;52.404;20.816;2024-02-21T15:03:12;6.40;99.90
69261;DHT22;56378;52.404;20.816;2024-02-21T15:05:41;6.40;99.90
69261;DHT22;56378;52.404;20.816;2024-02-21T15:08:07;6.40;99.90
69261;DHT22;56378;52.404;20.816;2024-02-21T15:10:36;6.40;99.90
69261;DHT22;56378;52.404;20.816;2024-02-21T15:13:02;6.40;99.90
69261;DHT22;56378;52.404;20.816;2024-02-21T15:15:28;6.30;99.90
69261;DHT22;56378;52.404;20.816;2024-02-21T15:17:54;6.30;99.90
69261;DHT22;56378;52.404;20.816;2024-02-21T15:20:20;6.30;99.90
69261;DHT22;56378;52.404;20.816;2024-02-21T15:22:45;6.30;99.90
69261;DHT22;56378;52.404;20.816;2024-02-21T15:25:11;6.30;99.90
69261;DHT22;56378;52.404;20.816;2024-02-21T15:27:44;6.30;99.90
69261;DHT22;56378;52.404;20.816;2024-02-21T15:30:11;6.30;99.90